sensor_id;sensor_type;location;lat;lon;timestamp;temperature;humidity
75782;DHT22;64400;44.762;37.698;2023-04-12T00:00:18;12.72;108.12
75782;DHT22;64400;44.762;37.698;2023-04-12T00:02:47;12.71;108.26
75782;DHT22;64400;44.762;37.698;2023-04-12T00:05:21;12.76;108.39
75782;DHT22;64400;44.762;37.698;2023-04-12T00:07:50;12.74;108.17
75782;DHT22;64400;44.762;37.698;2023-04-12T00:10:20;12.60;108.04
75782;DHT22;64400;44.762;37.698;2023-04-12T00:12:49;12.50;108.30
75782;DHT22;64400;44.762;37.698;2023-04-12T00:15:17;12.53;108.52
75782;DHT22;64400;44.762;37.698;2023-04-12T00:17:46;12.53;108.43
75782;DHT22;64400;44.762;37.698;2023-04-12T00:20:14;12.53;108.36
75782;DHT22;64400;44.762;37.698;2023-04-12T00:22:43;12.50;108.20
75782;DHT22;64400;44.762;37.698;2023-04-12T00:25:12;12.48;108.33
75782;DHT22;64400;44.762;37.698;2023-04-12T00:27:40;12.46;108.43
75782;DHT22;64400;44.762;37.698;2023-04-12T00:30:09;12.47;108.67
75782;DHT22;64400;44.762;37.698;2023-04-12T00:32:37;12.46;108.65
75782;DHT22;64400;44.762;37.698;2023-04-12T00:35:06;12.50;108.53
75782;DHT22;64400;44.762;37.698;2023-04-12T00:37:34;12.60;108.29
75782;DHT22;64400;44.762;37.698;2023-04-12T00:40:08;12.64;107.91
75782;DHT22;64400;44.762;37.698;2023-04-12T00:42:36;12.65;107.80
75782;DHT22;64400;44.762;37.698;2023-04-12T00:45:05;12.63;107.75
75782;DHT22;64400;44.762;37.698;2023-04-12T00:47:37;12.65;107.67
75782;DHT22;64400;44.762;37.698;2023-04-12T00:50:06;12.53;107.54
75782;DHT22;64400;44.762;37.698;2023-04-12T00:52:36;12.45;107.72
75782;DHT22;64400;44.762;37.698;2023-04-12T00:55:06;12.53;107.63
75782;DHT22;64400;44.762;37.698;2023-04-12T00:57:38;12.55;106.98
75782;DHT22;64400;44.762;37.698;2023-04-12T01:00:08;12.58;107.03
75782;DHT22;64400;44.762;37.698;2023-04-12T01:02:41;12.52;107.00
75782;DHT22;64400;44.762;37.698;2023-04-12T01:05:16;12.50;107.30
75782;DHT22;64400;44.762;37.698;2023-04-12T01:08:23;12.57;107.15
75782;DHT22;64400;44.762;37.698;2023-04-12T01:11:25;12.57;106.95
75782;DHT22;64400;44.762;37.698;2023-04-12T01:14:06;12.61;106.91
75782;DHT22;64400;44.762;37.698;2023-04-12T01:16:41;12.66;106.49
75782;DHT22;64400;44.762;37.698;2023-04-12T01:22:17;12.74;106.00
75782;DHT22;64400;44.762;37.698;2023-04-12T01:30:06;12.64;106.11
75782;DHT22;64400;44.762;37.698;2023-04-12T01:32:37;12.59;106.13
75782;DHT22;64400;44.762;37.698;2023-04-12T01:35:07;12.61;106.46
75782;DHT22;64400;44.762;37.698;2023-04-12T01:37:37;12.65;106.36
75782;DHT22;64400;44.762;37.698;2023-04-12T01:40:06;12.72;106.08
75782;DHT22;64400;44.762;37.698;2023-04-12T01:42:36;12.74;105.72
75782;DHT22;64400;44.762;37.698;2023-04-12T01:45:05;12.79;105.46
75782;DHT22;64400;44.762;37.698;2023-04-12T01:47:33;12.88;105.25
75782;DHT22;64400;44.762;37.698;2023-04-12T01:50:11;12.89;105.09
75782;DHT22;64400;44.762;37.698;2023-04-12T01:52:44;12.79;105.20
75782;DHT22;64400;44.762;37.698;2023-04-12T01:55:15;12.72;105.54
75782;DHT22;64400;44.762;37.698;2023-04-12T01:57:46;12.77;105.60
75782;DHT22;64400;44.762;37.698;2023-04-12T02:00:16;12.74;105.79
75782;DHT22;64400;44.762;37.698;2023-04-12T02:02:45;12.62;106.31
75782;DHT22;64400;44.762;37.698;2023-04-12T02:05:14;12.43;107.32
75782;DHT22;64400;44.762;37.698;2023-04-12T02:07:43;12.33;108.16
75782;DHT22;64400;44.762;37.698;2023-04-12T02:10:13;12.31;108.39
75782;DHT22;64400;44.762;37.698;2023-04-12T02:12:42;12.29;108.93
75782;DHT22;64400;44.762;37.698;2023-04-12T02:15:10;12.31;108.88
75782;DHT22;64400;44.762;37.698;2023-04-12T02:17:40;12.37;108.72
75782;DHT22;64400;44.762;37.698;2023-04-12T02:20:09;12.34;108.38
75782;DHT22;64400;44.762;37.698;2023-04-12T02:22:38;12.31;108.43
75782;DHT22;64400;44.762;37.698;2023-04-12T02:25:07;12.26;108.39
75782;DHT22;64400;44.762;37.698;2023-04-12T02:27:35;12.20;108.78
75782;DHT22;64400;44.762;37.698;2023-04-12T02:30:04;12.17;108.91
75782;DHT22;64400;44.762;37.698;2023-04-12T02:32:34;12.07;109.07
75782;DHT22;64400;44.762;37.698;2023-04-12T02:35:16;12.12;109.30
75782;DHT22;64400;44.762;37.698;2023-04-12T02:37:47;12.07;109.21
75782;DHT22;64400;44.762;37.698;2023-04-12T02:40:16;12.11;109.27
75782;DHT22;64400;44.762;37.698;2023-04-12T02:42:44;12.11;109.39
75782;DHT22;64400;44.762;37.698;2023-04-12T02:45:13;12.20;109.30
75782;DHT22;64400;44.762;37.698;2023-04-12T02:47:42;12.22;109.01
75782;DHT22;64400;44.762;37.698;2023-04-12T02:50:11;12.22;108.88
75782;DHT22;64400;44.762;37.698;2023-04-12T02:52:49;12.17;108.66
75782;DHT22;64400;44.762;37.698;2023-04-12T02:55:18;12.21;108.81
75782;DHT22;64400;44.762;37.698;2023-04-12T02:57:46;12.32;108.52
75782;DHT22;64400;44.762;37.698;2023-04-12T03:00:16;12.37;108.07
75782;DHT22;64400;44.762;37.698;2023-04-12T03:02:58;12.42;107.69
75782;DHT22;64400;44.762;37.698;2023-04-12T03:05:30;12.48;107.29
75782;DHT22;64400;44.762;37.698;2023-04-12T03:07:59;12.45;107.23
75782;DHT22;64400;44.762;37.698;2023-04-12T03:10:50;12.45;107.49
75782;DHT22;64400;44.762;37.698;2023-04-12T03:13:19;12.53;107.06
75782;DHT22;64400;44.762;37.698;2023-04-12T03:15:58;12.50;106.87
75782;DHT22;64400;44.762;37.698;2023-04-12T03:18:33;12.47;106.86
75782;DHT22;64400;44.762;37.698;2023-04-12T03:21:08;12.43;106.98
75782;DHT22;64400;44.762;37.698;2023-04-12T03:23:37;12.41;107.09
75782;DHT22;64400;44.762;37.698;2023-04-12T03:26:15;12.35;107.30
75782;DHT22;64400;44.762;37.698;2023-04-12T03:28:59;12.28;107.85
75782;DHT22;64400;44.762;37.698;2023-04-12T03:31:31;12.29;108.17
75782;DHT22;64400;44.762;37.698;2023-04-12T03:34:04;12.26;108.18
75782;DHT22;64400;44.762;37.698;2023-04-12T03:36:35;12.17;108.36
75782;DHT22;64400;44.762;37.698;2023-04-12T03:39:17;12.15;108.70
75782;DHT22;64400;44.762;37.698;2023-04-12T03:41:50;12.14;108.80
75782;DHT22;64400;44.762;37.698;2023-04-12T03:44:24;12.12;108.84
75782;DHT22;64400;44.762;37.698;2023-04-12T03:46:55;12.13;108.85
75782;DHT22;64400;44.762;37.698;2023-04-12T03:49:25;12.13;108.84
75782;DHT22;64400;44.762;37.698;2023-04-12T03:51:54;12.03;109.11
75782;DHT22;64400;44.762;37.698;2023-04-12T03:54:25;11.99;109.30
75782;DHT22;64400;44.762;37.698;2023-04-12T03:56:58;12.02;109.72
75782;DHT22;64400;44.762;37.698;2023-04-12T03:59:37;11.92;109.72
75782;DHT22;64400;44.762;37.698;2023-04-12T04:02:07;11.93;109.89
75782;DHT22;64400;44.762;37.698;2023-04-12T04:04:43;11.98;109.91
75782;DHT22;64400;44.762;37.698;2023-04-12T04:07:15;12.02;109.70
75782;DHT22;64400;44.762;37.698;2023-04-12T04:09:45;12.00;109.55
75782;DHT22;64400;44.762;37.698;2023-04-12T04:12:14;12.01;109.53
75782;DHT22;64400;44.762;37.698;2023-04-12T04:14:48;11.99;109.41
75782;DHT22;64400;44.762;37.698;2023-04-12T04:17:37;11.96;109.37
75782;DHT22;64400;44.762;37.698;2023-04-12T04:20:05;11.94;109.55
75782;DHT22;64400;44.762;37.698;2023-04-12T04:22:38;11.93;109.62
75782;DHT22;64400;44.762;37.698;2023-04-12T04:25:07;11.94;109.77
75782;DHT22;64400;44.762;37.698;2023-04-12T04:27:43;11.91;109.50
75782;DHT22;64400;44.762;37.698;2023-04-12T04:30:14;11.86;109.87
75782;DHT22;64400;44.762;37.698;2023-04-12T04:32:45;11.84;109.89
75782;DHT22;64400;44.762;37.698;2023-04-12T04:35:19;11.68;110.04
75782;DHT22;64400;44.762;37.698;2023-04-12T04:38:06;11.69;110.46
75782;DHT22;64400;44.762;37.698;2023-04-12T04:40:36;11.75;110.55
75782;DHT22;64400;44.762;37.698;2023-04-12T04:43:08;11.76;110.45
75782;DHT22;64400;44.762;37.698;2023-04-12T04:45:40;11.74;110.29
75782;DHT22;64400;44.762;37.698;2023-04-12T04:48:10;11.71;110.09
75782;DHT22;64400;44.762;37.698;2023-04-12T04:50:38;11.77;110.25
75782;DHT22;64400;44.762;37.698;2023-04-12T04:53:06;11.75;110.33
75782;DHT22;64400;44.762;37.698;2023-04-12T04:55:35;11.76;110.19
75782;DHT22;64400;44.762;37.698;2023-04-12T04:58:06;11.82;110.16
75782;DHT22;64400;44.762;37.698;2023-04-12T05:00:35;11.81;110.11
75782;DHT22;64400;44.762;37.698;2023-04-12T05:03:04;11.87;110.00
75782;DHT22;64400;44.762;37.698;2023-04-12T05:05:32;11.87;109.78
75782;DHT22;64400;44.762;37.698;2023-04-12T05:08:06;11.96;109.77
75782;DHT22;64400;44.762;37.698;2023-04-12T05:10:35;12.02;109.58
75782;DHT22;64400;44.762;37.698;2023-04-12T05:13:04;12.00;109.13
75782;DHT22;64400;44.762;37.698;2023-04-12T05:15:33;12.06;109.16
75782;DHT22;64400;44.762;37.698;2023-04-12T05:18:02;12.04;108.97
75782;DHT22;64400;44.762;37.698;2023-04-12T05:20:30;12.04;108.95
75782;DHT22;64400;44.762;37.698;2023-04-12T05:22:59;12.06;108.91
75782;DHT22;64400;44.762;37.698;2023-04-12T05:25:28;12.12;108.87
75782;DHT22;64400;44.762;37.698;2023-04-12T05:28:04;12.13;108.55
75782;DHT22;64400;44.762;37.698;2023-04-12T05:30:34;12.20;108.43
75782;DHT22;64400;44.762;37.698;2023-04-12T05:33:03;12.18;108.14
75782;DHT22;64400;44.762;37.698;2023-04-12T05:35:33;12.19;108.15
75782;DHT22;64400;44.762;37.698;2023-04-12T05:38:02;12.20;108.23
75782;DHT22;64400;44.762;37.698;2023-04-12T05:40:31;12.12;108.25
75782;DHT22;64400;44.762;37.698;2023-04-12T05:43:00;12.14;108.52
75782;DHT22;64400;44.762;37.698;2023-04-12T05:45:30;12.23;108.46
75782;DHT22;64400;44.762;37.698;2023-04-12T05:48:00;12.28;108.36
75782;DHT22;64400;44.762;37.698;2023-04-12T05:50:29;12.29;108.07
75782;DHT22;64400;44.762;37.698;2023-04-12T05:52:59;12.28;107.59
75782;DHT22;64400;44.762;37.698;2023-04-12T05:55:31;12.27;107.46
75782;DHT22;64400;44.762;37.698;2023-04-12T05:58:00;12.28;107.52
75782;DHT22;64400;44.762;37.698;2023-04-12T06:00:29;12.31;107.90
75782;DHT22;64400;44.762;37.698;2023-04-12T06:02:57;12.33;108.02
75782;DHT22;64400;44.762;37.698;2023-04-12T06:05:26;12.33;108.14
75782;DHT22;64400;44.762;37.698;2023-04-12T06:07:56;12.31;108.04
75782;DHT22;64400;44.762;37.698;2023-04-12T06:10:26;12.31;108.41
75782;DHT22;64400;44.762;37.698;2023-04-12T06:12:55;12.29;108.09
75782;DHT22;64400;44.762;37.698;2023-04-12T06:15:24;12.34;108.24
75782;DHT22;64400;44.762;37.698;2023-04-12T06:17:54;12.36;108.00
75782;DHT22;64400;44.762;37.698;2023-04-12T06:20:22;12.34;108.16
75782;DHT22;64400;44.762;37.698;2023-04-12T06:22:51;12.16;107.98
75782;DHT22;64400;44.762;37.698;2023-04-12T06:25:20;12.10;108.24
75782;DHT22;64400;44.762;37.698;2023-04-12T06:27:51;12.13;108.39
75782;DHT22;64400;44.762;37.698;2023-04-12T06:30:20;12.13;107.88
75782;DHT22;64400;44.762;37.698;2023-04-12T06:32:52;12.12;108.01
75782;DHT22;64400;44.762;37.698;2023-04-12T06:35:22;12.11;107.78
75782;DHT22;64400;44.762;37.698;2023-04-12T06:37:51;12.08;107.22
75782;DHT22;64400;44.762;37.698;2023-04-12T06:40:19;12.08;106.82
75782;DHT22;64400;44.762;37.698;2023-04-12T06:42:48;12.06;106.50
75782;DHT22;64400;44.762;37.698;2023-04-12T06:45:21;12.03;106.30
75782;DHT22;64400;44.762;37.698;2023-04-12T06:47:50;12.10;106.66
75782;DHT22;64400;44.762;37.698;2023-04-12T06:50:18;12.14;106.65
75782;DHT22;64400;44.762;37.698;2023-04-12T06:52:49;12.13;106.08
75782;DHT22;64400;44.762;37.698;2023-04-12T06:55:17;12.28;106.37
75782;DHT22;64400;44.762;37.698;2023-04-12T06:57:46;12.52;105.69
75782;DHT22;64400;44.762;37.698;2023-04-12T07:00:17;12.55;103.69
75782;DHT22;64400;44.762;37.698;2023-04-12T07:02:45;12.51;103.36
75782;DHT22;64400;44.762;37.698;2023-04-12T07:05:14;12.47;103.15
75782;DHT22;64400;44.762;37.698;2023-04-12T07:07:43;12.38;103.05
75782;DHT22;64400;44.762;37.698;2023-04-12T07:10:12;12.45;103.55
75782;DHT22;64400;44.762;37.698;2023-04-12T07:12:40;12.34;103.28
75782;DHT22;64400;44.762;37.698;2023-04-12T07:15:09;12.13;103.83
75782;DHT22;64400;44.762;37.698;2023-04-12T07:17:37;12.00;105.05
75782;DHT22;64400;44.762;37.698;2023-04-12T07:20:06;11.93;105.32
75782;DHT22;64400;44.762;37.698;2023-04-12T07:22:35;11.77;105.11
75782;DHT22;64400;44.762;37.698;2023-04-12T07:25:04;11.63;105.41
75782;DHT22;64400;44.762;37.698;2023-04-12T07:27:38;11.69;106.20
75782;DHT22;64400;44.762;37.698;2023-04-12T07:30:07;11.74;105.92
75782;DHT22;64400;44.762;37.698;2023-04-12T07:32:35;11.83;105.48
75782;DHT22;64400;44.762;37.698;2023-04-12T07:35:04;11.61;104.84
75782;DHT22;64400;44.762;37.698;2023-04-12T07:37:34;11.56;105.79
75782;DHT22;64400;44.762;37.698;2023-04-12T07:40:02;11.58;106.72
75782;DHT22;64400;44.762;37.698;2023-04-12T07:42:31;11.57;106.25
75782;DHT22;64400;44.762;37.698;2023-04-12T07:45:00;11.55;105.56
75782;DHT22;64400;44.762;37.698;2023-04-12T07:47:30;11.62;106.50
75782;DHT22;64400;44.762;37.698;2023-04-12T07:49:59;11.76;106.81
75782;DHT22;64400;44.762;37.698;2023-04-12T07:52:31;11.66;105.54
75782;DHT22;64400;44.762;37.698;2023-04-12T07:54:59;11.54;105.78
75782;DHT22;64400;44.762;37.698;2023-04-12T07:57:29;11.68;106.95
75782;DHT22;64400;44.762;37.698;2023-04-12T08:00:00;11.79;106.05
75782;DHT22;64400;44.762;37.698;2023-04-12T08:02:39;11.83;105.42
75782;DHT22;64400;44.762;37.698;2023-04-12T08:05:08;11.62;104.81
75782;DHT22;64400;44.762;37.698;2023-04-12T08:07:37;11.57;104.92
75782;DHT22;64400;44.762;37.698;2023-04-12T08:10:06;11.72;104.79
75782;DHT22;64400;44.762;37.698;2023-04-12T08:12:34;11.81;105.17
75782;DHT22;64400;44.762;37.698;2023-04-12T08:15:03;11.88;104.76
75782;DHT22;64400;44.762;37.698;2023-04-12T08:17:32;11.94;104.12
75782;DHT22;64400;44.762;37.698;2023-04-12T08:20:01;11.93;103.30
75782;DHT22;64400;44.762;37.698;2023-04-12T08:22:31;11.89;103.31
75782;DHT22;64400;44.762;37.698;2023-04-12T08:24:59;11.97;103.82
75782;DHT22;64400;44.762;37.698;2023-04-12T08:27:29;12.02;103.54
75782;DHT22;64400;44.762;37.698;2023-04-12T08:29:57;12.08;102.86
75782;DHT22;64400;44.762;37.698;2023-04-12T08:32:25;12.05;102.02
75782;DHT22;64400;44.762;37.698;2023-04-12T08:34:53;12.14;101.79
75782;DHT22;64400;44.762;37.698;2023-04-12T08:37:22;12.36;102.55
75782;DHT22;64400;44.762;37.698;2023-04-12T08:39:50;12.36;101.08
75782;DHT22;64400;44.762;37.698;2023-04-12T08:42:19;12.44;101.62
75782;DHT22;64400;44.762;37.698;2023-04-12T08:44:47;12.52;100.18
75782;DHT22;64400;44.762;37.698;2023-04-12T08:47:18;12.71;100.19
75782;DHT22;64400;44.762;37.698;2023-04-12T08:49:46;12.71;99.58
75782;DHT22;64400;44.762;37.698;2023-04-12T08:52:14;12.60;100.77
75782;DHT22;64400;44.762;37.698;2023-04-12T08:54:42;12.67;99.83
75782;DHT22;64400;44.762;37.698;2023-04-12T08:57:11;12.79;99.93
75782;DHT22;64400;44.762;37.698;2023-04-12T08:59:41;12.86;100.54
75782;DHT22;64400;44.762;37.698;2023-04-12T09:02:12;12.85;99.98
75782;DHT22;64400;44.762;37.698;2023-04-12T09:04:48;12.61;101.10
75782;DHT22;64400;44.762;37.698;2023-04-12T09:07:17;12.58;101.49
75782;DHT22;64400;44.762;37.698;2023-04-12T09:09:46;12.48;102.26
75782;DHT22;64400;44.762;37.698;2023-04-12T09:12:14;12.45;102.67
75782;DHT22;64400;44.762;37.698;2023-04-12T09:14:42;12.35;103.27
75782;DHT22;64400;44.762;37.698;2023-04-12T09:19:49;12.26;104.09
75782;DHT22;64400;44.762;37.698;2023-04-12T09:22:17;12.21;103.51
75782;DHT22;64400;44.762;37.698;2023-04-12T09:24:50;12.06;103.52
75782;DHT22;64400;44.762;37.698;2023-04-12T09:27:20;12.08;104.66
75782;DHT22;64400;44.762;37.698;2023-04-12T09:29:48;12.02;102.88
75782;DHT22;64400;44.762;37.698;2023-04-12T09:32:24;12.00;102.82
75782;DHT22;64400;44.762;37.698;2023-04-12T09:34:57;12.14;102.66
75782;DHT22;64400;44.762;37.698;2023-04-12T09:37:25;12.36;102.72
75782;DHT22;64400;44.762;37.698;2023-04-12T09:40:05;12.57;102.95
75782;DHT22;64400;44.762;37.698;2023-04-12T09:42:35;12.65;102.88
75782;DHT22;64400;44.762;37.698;2023-04-12T09:45:21;12.53;102.57
75782;DHT22;64400;44.762;37.698;2023-04-12T09:47:52;12.49;103.44
75782;DHT22;64400;44.762;37.698;2023-04-12T09:50:23;12.55;103.54
75782;DHT22;64400;44.762;37.698;2023-04-12T09:52:52;12.47;104.31
75782;DHT22;64400;44.762;37.698;2023-04-12T09:55:21;12.35;103.03
75782;DHT22;64400;44.762;37.698;2023-04-12T09:57:52;12.41;103.36
75782;DHT22;64400;44.762;37.698;2023-04-12T10:00:24;12.45;103.25
75782;DHT22;64400;44.762;37.698;2023-04-12T10:02:54;12.47;103.25
75782;DHT22;64400;44.762;37.698;2023-04-12T10:05:25;12.51;103.27
75782;DHT22;64400;44.762;37.698;2023-04-12T10:07:57;12.49;102.31
75782;DHT22;64400;44.762;37.698;2023-04-12T10:10:29;12.46;102.33
75782;DHT22;64400;44.762;37.698;2023-04-12T10:12:58;12.49;102.60
75782;DHT22;64400;44.762;37.698;2023-04-12T10:15:28;12.48;102.07
75782;DHT22;64400;44.762;37.698;2023-04-12T10:18:01;12.56;101.57
75782;DHT22;64400;44.762;37.698;2023-04-12T10:20:29;12.65;102.47
75782;DHT22;64400;44.762;37.698;2023-04-12T10:23:01;12.62;101.34
75782;DHT22;64400;44.762;37.698;2023-04-12T10:25:29;12.57;101.19
75782;DHT22;64400;44.762;37.698;2023-04-12T10:28:13;12.63;101.18
75782;DHT22;64400;44.762;37.698;2023-04-12T10:30:41;12.62;101.30
75782;DHT22;64400;44.762;37.698;2023-04-12T10:33:12;12.52;100.69
75782;DHT22;64400;44.762;37.698;2023-04-12T10:36:00;12.47;101.06
75782;DHT22;64400;44.762;37.698;2023-04-12T10:39:08;12.40;100.33
75782;DHT22;64400;44.762;37.698;2023-04-12T10:41:37;12.37;100.87
75782;DHT22;64400;44.762;37.698;2023-04-12T10:44:24;12.25;101.53
75782;DHT22;64400;44.762;37.698;2023-04-12T10:46:53;12.21;101.07
75782;DHT22;64400;44.762;37.698;2023-04-12T10:49:22;12.25;101.50
75782;DHT22;64400;44.762;37.698;2023-04-12T10:54:33;12.21;101.14
75782;DHT22;64400;44.762;37.698;2023-04-12T10:57:03;12.25;100.95
75782;DHT22;64400;44.762;37.698;2023-04-12T10:59:50;12.23;101.05
75782;DHT22;64400;44.762;37.698;2023-04-12T11:02:19;12.26;101.24
75782;DHT22;64400;44.762;37.698;2023-04-12T11:05:07;12.28;101.42
75782;DHT22;64400;44.762;37.698;2023-04-12T11:07:53;12.26;101.65
75782;DHT22;64400;44.762;37.698;2023-04-12T11:10:40;12.22;101.23
75782;DHT22;64400;44.762;37.698;2023-04-12T11:13:15;12.18;102.41
75782;DHT22;64400;44.762;37.698;2023-04-12T11:15:43;12.13;102.12
75782;DHT22;64400;44.762;37.698;2023-04-12T11:18:12;11.92;102.09
75782;DHT22;64400;44.762;37.698;2023-04-12T11:20:40;11.82;102.67
75782;DHT22;64400;44.762;37.698;2023-04-12T11:23:09;11.89;102.93
75782;DHT22;64400;44.762;37.698;2023-04-12T11:25:38;12.00;102.61
75782;DHT22;64400;44.762;37.698;2023-04-12T11:28:07;11.99;101.32
75782;DHT22;64400;44.762;37.698;2023-04-12T11:30:55;12.04;101.87
75782;DHT22;64400;44.762;37.698;2023-04-12T11:33:38;12.08;101.16
75782;DHT22;64400;44.762;37.698;2023-04-12T11:36:09;12.08;100.55
75782;DHT22;64400;44.762;37.698;2023-04-12T11:38:39;12.11;99.90
75782;DHT22;64400;44.762;37.698;2023-04-12T11:41:08;12.17;100.47
75782;DHT22;64400;44.762;37.698;2023-04-12T11:43:37;12.27;101.35
75782;DHT22;64400;44.762;37.698;2023-04-12T11:46:05;12.22;99.61
75782;DHT22;64400;44.762;37.698;2023-04-12T11:48:34;12.28;99.87
75782;DHT22;64400;44.762;37.698;2023-04-12T11:51:25;12.29;100.27
75782;DHT22;64400;44.762;37.698;2023-04-12T11:53:59;12.29;99.77
75782;DHT22;64400;44.762;37.698;2023-04-12T11:56:30;12.30;99.54
75782;DHT22;64400;44.762;37.698;2023-04-12T11:58:59;12.29;99.90
75782;DHT22;64400;44.762;37.698;2023-04-12T12:01:28;12.31;100.27
75782;DHT22;64400;44.762;37.698;2023-04-12T12:03:58;12.31;100.42
75782;DHT22;64400;44.762;37.698;2023-04-12T12:06:27;12.32;101.16
75782;DHT22;64400;44.762;37.698;2023-04-12T12:08:56;12.41;100.76
75782;DHT22;64400;44.762;37.698;2023-04-12T12:11:24;12.37;100.77
75782;DHT22;64400;44.762;37.698;2023-04-12T12:13:55;12.31;101.12
75782;DHT22;64400;44.762;37.698;2023-04-12T12:16:28;12.12;100.63
75782;DHT22;64400;44.762;37.698;2023-04-12T12:18:57;12.02;101.60
75782;DHT22;64400;44.762;37.698;2023-04-12T12:21:25;12.12;101.51
75782;DHT22;64400;44.762;37.698;2023-04-12T12:23:55;12.21;101.83
75782;DHT22;64400;44.762;37.698;2023-04-12T12:26:26;12.32;102.07
75782;DHT22;64400;44.762;37.698;2023-04-12T12:28:58;12.41;101.48
75782;DHT22;64400;44.762;37.698;2023-04-12T12:31:28;12.48;101.35
75782;DHT22;64400;44.762;37.698;2023-04-12T12:33:58;12.53;101.00
75782;DHT22;64400;44.762;37.698;2023-04-12T12:36:32;12.55;100.60
75782;DHT22;64400;44.762;37.698;2023-04-12T12:39:06;12.53;100.45
75782;DHT22;64400;44.762;37.698;2023-04-12T12:41:38;12.55;100.33
75782;DHT22;64400;44.762;37.698;2023-04-12T12:44:07;12.58;99.67
75782;DHT22;64400;44.762;37.698;2023-04-12T12:46:38;12.62;100.25
75782;DHT22;64400;44.762;37.698;2023-04-12T12:49:09;12.62;98.79
75782;DHT22;64400;44.762;37.698;2023-04-12T12:51:37;12.55;97.40
75782;DHT22;64400;44.762;37.698;2023-04-12T12:54:05;12.59;98.79
75782;DHT22;64400;44.762;37.698;2023-04-12T12:56:34;12.63;98.06
75782;DHT22;64400;44.762;37.698;2023-04-12T12:59:02;12.64;97.78
75782;DHT22;64400;44.762;37.698;2023-04-12T13:01:30;12.64;97.65
75782;DHT22;64400;44.762;37.698;2023-04-12T13:03:58;12.64;98.13
75782;DHT22;64400;44.762;37.698;2023-04-12T13:06:27;12.66;98.38
75782;DHT22;64400;44.762;37.698;2023-04-12T13:08:55;12.71;98.40
75782;DHT22;64400;44.762;37.698;2023-04-12T13:11:24;12.69;98.08
75782;DHT22;64400;44.762;37.698;2023-04-12T13:13:52;12.66;97.89
75782;DHT22;64400;44.762;37.698;2023-04-12T13:16:20;12.69;98.16
75782;DHT22;64400;44.762;37.698;2023-04-12T13:18:53;12.75;98.44
75782;DHT22;64400;44.762;37.698;2023-04-12T13:21:21;12.78;96.86
75782;DHT22;64400;44.762;37.698;2023-04-12T13:23:49;12.77;97.09
75782;DHT22;64400;44.762;37.698;2023-04-12T13:26:17;12.72;97.30
75782;DHT22;64400;44.762;37.698;2023-04-12T13:28:45;12.71;97.72
75782;DHT22;64400;44.762;37.698;2023-04-12T13:31:13;12.67;97.64
75782;DHT22;64400;44.762;37.698;2023-04-12T13:33:42;12.61;97.90
75782;DHT22;64400;44.762;37.698;2023-04-12T13:36:10;12.58;98.16
75782;DHT22;64400;44.762;37.698;2023-04-12T13:38:39;12.49;97.75
75782;DHT22;64400;44.762;37.698;2023-04-12T13:41:07;12.46;98.12
75782;DHT22;64400;44.762;37.698;2023-04-12T13:43:35;12.47;98.50
75782;DHT22;64400;44.762;37.698;2023-04-12T13:46:03;12.44;97.84
75782;DHT22;64400;44.762;37.698;2023-04-12T13:48:31;12.44;97.94
75782;DHT22;64400;44.762;37.698;2023-04-12T13:50:59;12.44;98.14
75782;DHT22;64400;44.762;37.698;2023-04-12T13:53:27;12.35;98.13
75782;DHT22;64400;44.762;37.698;2023-04-12T13:55:57;12.32;98.62
75782;DHT22;64400;44.762;37.698;2023-04-12T13:58:25;12.22;98.56
75782;DHT22;64400;44.762;37.698;2023-04-12T14:00:54;12.14;98.53
75782;DHT22;64400;44.762;37.698;2023-04-12T14:03:23;12.12;98.86
75782;DHT22;64400;44.762;37.698;2023-04-12T14:05:51;12.03;98.43
75782;DHT22;64400;44.762;37.698;2023-04-12T14:08:19;11.97;99.03
75782;DHT22;64400;44.762;37.698;2023-04-12T14:10:48;11.92;99.23
75782;DHT22;64400;44.762;37.698;2023-04-12T14:13:16;11.91;98.62
75782;DHT22;64400;44.762;37.698;2023-04-12T14:15:44;11.91;98.58
75782;DHT22;64400;44.762;37.698;2023-04-12T14:18:12;11.91;98.08
75782;DHT22;64400;44.762;37.698;2023-04-12T14:20:40;11.88;98.58
75782;DHT22;64400;44.762;37.698;2023-04-12T14:23:11;11.90;98.34
75782;DHT22;64400;44.762;37.698;2023-04-12T14:25:39;11.93;98.42
75782;DHT22;64400;44.762;37.698;2023-04-12T14:28:07;11.94;97.71
75782;DHT22;64400;44.762;37.698;2023-04-12T14:30:35;11.97;97.23
75782;DHT22;64400;44.762;37.698;2023-04-12T14:33:04;11.98;97.26
75782;DHT22;64400;44.762;37.698;2023-04-12T14:35:32;11.89;96.79
75782;DHT22;64400;44.762;37.698;2023-04-12T14:38:00;11.87;96.87
75782;DHT22;64400;44.762;37.698;2023-04-12T14:40:29;11.87;96.87
75782;DHT22;64400;44.762;37.698;2023-04-12T14:42:57;11.89;97.31
75782;DHT22;64400;44.762;37.698;2023-04-12T14:45:26;11.94;97.86
75782;DHT22;64400;44.762;37.698;2023-04-12T14:47:54;12.02;97.60
75782;DHT22;64400;44.762;37.698;2023-04-12T14:50:22;12.00;96.58
75782;DHT22;64400;44.762;37.698;2023-04-12T14:52:51;11.93;96.22
75782;DHT22;64400;44.762;37.698;2023-04-12T14:55:19;11.98;96.75
75782;DHT22;64400;44.762;37.698;2023-04-12T14:57:47;12.00;96.36
75782;DHT22;64400;44.762;37.698;2023-04-12T15:00:16;12.03;96.36
75782;DHT22;64400;44.762;37.698;2023-04-12T15:02:44;12.03;96.26
75782;DHT22;64400;44.762;37.698;2023-04-12T15:05:14;12.06;96.29
75782;DHT22;64400;44.762;37.698;2023-04-12T15:07:42;12.07;95.88
75782;DHT22;64400;44.762;37.698;2023-04-12T15:10:10;12.06;96.01
75782;DHT22;64400;44.762;37.698;2023-04-12T15:12:41;12.07;96.17
75782;DHT22;64400;44.762;37.698;2023-04-12T15:15:09;12.06;95.81
75782;DHT22;64400;44.762;37.698;2023-04-12T15:17:38;12.04;95.68
75782;DHT22;64400;44.762;37.698;2023-04-12T15:20:06;12.02;95.14
75782;DHT22;64400;44.762;37.698;2023-04-12T15:22:43;12.02;95.67
75782;DHT22;64400;44.762;37.698;2023-04-12T15:25:11;11.99;95.14
75782;DHT22;64400;44.762;37.698;2023-04-12T15:27:39;11.96;94.98
75782;DHT22;64400;44.762;37.698;2023-04-12T15:30:08;11.94;95.70
75782;DHT22;64400;44.762;37.698;2023-04-12T15:32:37;11.91;95.64
75782;DHT22;64400;44.762;37.698;2023-04-12T15:35:09;11.93;95.81
75782;DHT22;64400;44.762;37.698;2023-04-12T15:37:53;11.94;95.92
75782;DHT22;64400;44.762;37.698;2023-04-12T15:40:22;11.89;96.06